Time;durP1;ratioP1;P1;durP2;ratioP2;P2;SDS_P1;SDS_P2;PMS_P1;PMS_P2;Temp;Humidity;BMP_temperature;BMP_pressure;BME280_temperature;BME280_humidity;BME280_pressure;Samples;Min_cycle;Max_cycle;Signal;HPM_P1;HPM_P2
2023/03/11 00:00:43;;;;;;;3.53;2.83;;;;;;;-0.59;100.00;96385.47;15284055;19;20452;-53
2023/03/11 00:06:12;;;;;;;3.10;2.90;;;;;;;-0.60;100.00;96417.31;15288879;19;20475;-53
2023/03/11 00:11:37;;;;;;;4.43;4.05;;;;;;;-0.57;100.00;96457.53;15288631;19;20043;-51
2023/03/11 00:17:03;;;;;;;3.72;3.42;;;;;;;-0.50;100.00;96500.97;15290654;19;20007;-53
2023/03/11 00:22:30;;;;;;;4.13;3.80;;;;;;;0.24;100.00;96509.22;15287967;19;20022;-53
2023/03/11 00:27:55;;;;;;;3.90;3.47;;;;;;;0.39;100.00;96471.69;15285500;19;20015;-53
2023/03/11 00:33:19;;;;;;;4.35;3.95;;;;;;;1.63;100.00;96478.28;15282466;19;20046;-52
2023/03/11 00:38:47;;;;;;;3.45;3.15;;;;;;;1.69;100.00;96475.03;15283969;19;20026;-50
2023/03/11 00:44:11;;;;;;;4.43;4.03;;;;;;;0.21;100.00;96467.13;15283982;19;20026;-54
2023/03/11 00:49:36;;;;;;;5.05;4.03;;;;;;;0.19;100.00;96495.56;15282810;19;20027;-55
2023/03/11 00:55:03;;;;;;;4.07;3.65;;;;;;;0.27;100.00;96474.50;15285951;19;20031;-51
2023/03/11 01:00:30;;;;;;;2.90;2.70;;;;;;;0.07;100.00;96486.13;15284144;19;20015;-54
2023/03/11 01:05:54;;;;;;;3.38;3.08;;;;;;;0.28;100.00;96505.31;15280583;19;20052;-49
2023/03/11 01:11:22;;;;;;;3.70;3.40;;;;;;;0.55;100.00;96485.13;15283312;19;20014;-54
2023/03/11 01:16:48;;;;;;;3.60;3.30;;;;;;;0.69;100.00;96522.72;15284851;19;20373;-52
2023/03/11 01:22:13;;;;;;;2.80;2.60;;;;;;;0.60;100.00;96525.28;15281223;19;20508;-52
2023/03/11 01:27:40;;;;;;;3.03;2.83;;;;;;;0.68;100.00;96532.50;15280537;19;20007;-49
2023/03/11 01:33:06;;;;;;;3.20;2.90;;;;;;;0.66;100.00;96560.97;15282846;19;20018;-50
2023/03/11 01:38:31;;;;;;;3.05;2.85;;;;;;;0.67;100.00;96593.59;15285116;19;20018;-50
2023/03/11 01:44:03;;;;;;;2.50;2.30;;;;;;;0.89;100.00;96571.19;15282181;19;20018;-51
2023/03/11 01:49:28;;;;;;;2.47;2.30;;;;;;;0.99;100.00;96584.41;15278370;19;20022;-52
2023/03/11 01:54:53;;;;;;;2.17;1.98;;;;;;;1.14;100.00;96632.50;15286938;19;20010;-51
2023/03/11 02:00:21;;;;;;;2.28;2.08;;;;;;;1.17;100.00;96629.56;15305891;19;20066;-53
2023/03/11 02:05:46;;;;;;;2.15;2.00;;;;;;;1.05;100.00;96642.16;15277495;19;20042;-52
2023/03/11 02:11:17;;;;;;;2.20;2.00;;;;;;;1.14;100.00;96649.22;15281221;19;20010;-53
2023/03/11 02:16:46;;;;;;;2.00;1.90;;;;;;;1.01;100.00;96657.53;15279466;19;20006;-54
2023/03/11 02:22:13;;;;;;;2.20;2.00;;;;;;;1.03;100.00;96689.19;15278468;19;20022;-53
2023/03/11 02:27:47;;;;;;;2.20;2.00;;;;;;;0.87;100.00;96719.81;15278923;19;20025;-52
2023/03/11 02:33:20;;;;;;;2.28;2.05;;;;;;;0.97;100.00;96716.28;15275347;19;20015;-50
2023/03/11 02:38:45;;;;;;;2.15;1.95;;;;;;;1.07;100.00;96722.41;15275633;19;20019;-51
2023/03/11 02:44:15;;;;;;;2.15;2.00;;;;;;;1.01;100.00;96731.75;15274383;19;20085;-49
2023/03/11 02:49:40;;;;;;;1.80;1.70;;;;;;;0.97;100.00;96737.50;15276688;19;20010;-50
2023/03/11 02:55:06;;;;;;;2.00;1.80;;;;;;;1.07;100.00;96764.81;15281644;19;20014;-51
2023/03/11 03:00:33;;;;;;;1.80;1.70;;;;;;;1.02;100.00;96772.38;15284236;19;20035;-50
2023/03/11 03:05:59;;;;;;;1.73;1.63;;;;;;;1.01;100.00;96760.09;15292638;19;20035;-51
2023/03/11 03:11:24;;;;;;;1.50;1.40;;;;;;;0.96;100.00;96786.19;15285957;19;20026;-51
2023/03/11 03:16:51;;;;;;;1.25;1.15;;;;;;;0.99;100.00;96770.84;15289828;19;20490;-54
2023/03/11 03:22:17;;;;;;;1.50;1.40;;;;;;;1.09;100.00;96821.22;15289716;19;20475;-50
2023/03/11 03:27:43;;;;;;;2.15;1.08;;;;;;;1.06;100.00;96809.06;15289239;19;20010;-51
2023/03/11 03:33:18;;;;;;;1.30;1.20;;;;;;;1.13;100.00;96829.72;15287379;19;20354;-52
2023/03/11 03:38:43;;;;;;;1.10;1.10;;;;;;;1.35;100.00;96831.25;15289872;19;20018;-51
2023/03/11 03:44:10;;;;;;;1.33;1.23;;;;;;;1.35;100.00;96858.59;15282296;19;20023;-51
2023/03/11 03:49:38;;;;;;;1.10;1.10;;;;;;;1.22;100.00;96860.69;15281825;19;20022;-51
2023/03/11 03:55:04;;;;;;;1.20;1.10;;;;;;;1.06;100.00;96869.22;15290324;19;20021;-52
2023/03/11 04:00:29;;;;;;;1.30;1.20;;;;;;;0.98;100.00;96885.00;15286091;19;20019;-52
2023/03/11 04:05:56;;;;;;;1.33;1.23;;;;;;;0.95;100.00;96882.63;14779693;19;10001586;-51
2023/03/11 04:11:21;;;;;;;1.50;1.40;;;;;;;0.93;100.00;96896.03;15282020;19;20369;-51
2023/03/11 04:16:48;;;;;;;1.85;1.33;;;;;;;1.08;100.00;96909.72;15282856;19;20691;-50
2023/03/11 04:22:15;;;;;;;1.38;1.27;;;;;;;1.13;100.00;96925.22;15286032;19;20460;-47
2023/03/11 04:27:44;;;;;;;1.77;1.20;;;;;;;1.04;100.00;96929.53;15285169;19;20487;-48
2023/03/11 04:33:10;;;;;;;1.35;1.25;;;;;;;1.01;100.00;96948.34;15284963;19;20571;-52
2023/03/11 04:38:38;;;;;;;1.23;1.10;;;;;;;1.07;100.00;96955.78;15287452;19;20089;-50
2023/03/11 04:44:04;;;;;;;1.40;0.98;;;;;;;0.88;100.00;96962.72;15283097;19;20867;-52
2023/03/11 04:49:28;;;;;;;1.35;1.10;;;;;;;1.00;100.00;96966.09;15280458;19;20082;-51
2023/03/11 04:54:57;;;;;;;1.13;1.00;;;;;;;1.09;100.00;96969.75;15285614;19;20018;-49
2023/03/11 05:00:24;;;;;;;0.80;0.80;;;;;;;1.07;100.00;96975.16;15284794;19;20046;-49
2023/03/11 05:05:55;;;;;;;1.10;1.00;;;;;;;1.05;100.00;96997.50;15285217;19;20020;-54
2023/03/11 05:11:23;;;;;;;1.05;0.90;;;;;;;1.11;100.00;97002.28;15277494;19;20503;-51
2023/03/11 05:16:48;;;;;;;2.17;0.93;;;;;;;1.07;100.00;97008.81;15284305;19;20031;-49
2023/03/11 05:22:15;;;;;;;1.17;0.90;;;;;;;1.07;100.00;97014.94;15279219;19;20021;-49
2023/03/11 05:27:42;;;;;;;1.33;0.80;;;;;;;0.98;100.00;97022.91;15280659;19;20022;-49
2023/03/11 05:33:08;;;;;;;2.33;1.00;;;;;;;0.99;100.00;97024.56;15281290;19;20022;-52
2023/03/11 05:38:34;;;;;;;0.73;0.70;;;;;;;1.05;100.00;97045.25;15281548;19;20035;-52
2023/03/11 05:44:02;;;;;;;1.23;0.80;;;;;;;1.08;100.00;97043.16;15278612;19;20018;-52
2023/03/11 05:49:27;;;;;;;1.20;0.70;;;;;;;1.06;100.00;97054.88;15279541;19;20010;-50
2023/03/11 05:54:52;;;;;;;0.90;0.75;;;;;;;1.15;100.00;97062.00;15274133;19;20676;-51
2023/03/11 06:00:21;;;;;;;1.90;0.98;;;;;;;1.50;100.00;97078.44;15276901;19;20120;-52
2023/03/11 06:05:53;;;;;;;2.88;0.65;;;;;;;1.27;100.00;97061.91;15280497;19;20014;-52
2023/03/11 06:11:19;;;;;;;;;;;;;;;1.17;100.00;97086.59;15274517;19;20025;-47
2023/03/11 06:16:47;;;;;;;1.55;0.70;;;;;;;1.23;100.00;97090.53;15279605;19;19931;-49
2023/03/11 06:22:12;;;;;;;1.15;0.63;;;;;;;1.10;100.00;97101.38;15274257;19;20016;-48
2023/03/11 06:27:36;;;;;;;1.05;0.80;;;;;;;1.22;100.00;97113.56;15273254;19;20014;-47
2023/03/11 06:33:03;;;;;;;2.00;0.85;;;;;;;1.25;100.00;97123.06;15273957;19;20354;-48
2023/03/11 06:38:29;;;;;;;2.08;0.82;;;;;;;1.20;100.00;97125.28;15276074;19;20006;-47
2023/03/11 06:43:55;;;;;;;1.33;0.73;;;;;;;1.17;100.00;97137.00;15272968;19;20022;-49
2023/03/11 06:49:23;;;;;;;1.85;1.10;;;;;;;1.29;100.00;97166.94;15274853;19;20038;-48
2023/03/11 06:54:48;;;;;;;1.13;0.68;;;;;;;1.47;100.00;97164.44;15276242;19;20033;-50
2023/03/11 07:00:19;;;;;;;3.75;1.05;;;;;;;1.31;100.00;97185.38;15271738;19;20022;-52
2023/03/11 07:05:52;;;;;;;2.38;1.02;;;;;;;1.20;100.00;97195.09;15276322;19;20035;-48
2023/03/11 07:11:18;;;;;;;2.75;0.95;;;;;;;1.16;100.00;97204.28;15273683;19;20039;-51
2023/03/11 07:16:50;;;;;;;3.72;1.00;;;;;;;1.61;100.00;97203.06;15275388;19;20014;-51
2023/03/11 07:22:22;;;;;;;3.25;1.00;;;;;;;1.77;100.00;97209.66;15274312;19;20014;-49
2023/03/11 07:27:48;;;;;;;1.65;0.90;;;;;;;1.73;100.00;97230.34;15271783;19;20078;-52
2023/03/11 07:33:12;;;;;;;2.30;0.98;;;;;;;1.52;100.00;97241.03;15270863;19;20333;-50
2023/03/11 07:38:40;;;;;;;2.75;1.20;;;;;;;1.82;100.00;97245.47;15274505;19;20019;-51
2023/03/11 07:44:07;;;;;;;4.25;1.17;;;;;;;2.14;100.00;97257.72;15270061;19;20666;-48
2023/03/11 07:49:32;;;;;;;2.92;0.90;;;;;;;1.99;100.00;97269.69;15275560;19;20703;-48
2023/03/11 07:55:00;;;;;;;3.20;1.00;;;;;;;1.91;100.00;97273.03;15289238;19;20020;-48
2023/03/11 08:00:25;;;;;;;4.30;1.17;;;;;;;2.17;100.00;97275.19;15282899;19;20525;-48
2023/03/11 08:05:49;;;;;;;4.28;1.00;;;;;;;2.09;100.00;97297.13;15286730;19;20566;-51
2023/03/11 08:11:18;;;;;;;3.25;1.20;;;;;;;1.90;100.00;97297.91;15284041;19;20046;-50
2023/03/11 08:16:43;;;;;;;4.38;1.10;;;;;;;2.18;100.00;97305.25;15286927;19;20015;-48
2023/03/11 08:22:08;;;;;;;3.33;1.08;;;;;;;2.37;100.00;97312.44;15288596;19;20011;-49
2023/03/11 08:27:37;;;;;;;4.07;1.17;;;;;;;2.57;100.00;97319.47;15288240;19;20015;-49
2023/03/11 08:33:03;;;;;;;3.88;1.10;;;;;;;2.56;100.00;97319.59;15282765;19;20068;-48
2023/03/11 08:38:29;;;;;;;3.70;1.00;;;;;;;2.61;100.00;97323.53;15287142;19;20022;-51
2023/03/11 08:43:57;;;;;;;3.47;1.10;;;;;;;3.11;100.00;97323.56;15285673;19;20014;-49
2023/03/11 08:49:22;;;;;;;3.97;1.00;;;;;;;2.70;100.00;97332.50;15289592;19;20029;-52
2023/03/11 08:54:47;;;;;;;2.65;1.00;;;;;;;3.16;100.00;97354.09;15287440;19;20419;-61
2023/03/11 09:00:22;;;;;;;2.97;1.00;;;;;;;3.16;100.00;97350.56;15273999;19;20493;-80
2023/03/11 09:05:47;;;;;;;1.25;0.90;;;;;;;3.03;100.00;97359.66;15275455;19;20018;-74
2023/03/11 09:11:12;;;;;;;4.10;1.10;;;;;;;3.15;100.00;97349.75;15273400;19;20034;-79
2023/03/11 09:16:39;;;;;;;1.63;0.80;;;;;;;2.73;100.00;97372.13;15274716;19;20035;-74
2023/03/11 09:22:04;;;;;;;3.38;0.90;;;;;;;2.84;100.00;97380.94;15277237;19;20047;-73
2023/03/11 09:27:29;;;;;;;3.10;1.08;;;;;;;3.04;100.00;97395.94;15276401;19;20374;-75
2023/03/11 09:32:56;;;;;;;3.08;1.00;;;;;;;3.01;100.00;97404.19;15278780;19;20014;-77
2023/03/11 09:38:23;;;;;;;1.60;0.70;;;;;;;3.30;100.00;97414.03;15284320;19;20014;-74
2023/03/11 09:44:03;;;;;;;2.88;1.10;;;;;;;3.13;100.00;97418.22;15331795;19;20017;-76
2023/03/11 09:49:38;;;;;;;3.53;0.98;;;;;;;2.88;100.00;97427.59;15280566;19;20070;-73
2023/03/11 09:55:04;;;;;;;3.72;1.05;;;;;;;3.23;100.00;97426.22;15275547;19;20698;-75
2023/03/11 10:00:29;;;;;;;2.97;0.90;;;;;;;3.42;100.00;97436.00;15274043;19;20030;-74
2023/03/11 10:05:56;;;;;;;2.60;0.90;;;;;;;2.93;100.00;97450.16;15278536;19;20025;-76
2023/03/11 10:11:34;;;;;;;3.28;0.98;;;;;;;2.88;100.00;97454.19;15262160;19;20024;-78
2023/03/11 10:17:08;;;;;;;2.78;1.00;;;;;;;2.76;100.00;97464.91;15276116;19;20017;-74
2023/03/11 10:22:45;;;;;;;2.38;0.90;;;;;;;3.13;100.00;97465.28;15277043;19;20049;-74
2023/03/11 10:28:17;;;;;;;2.42;0.95;;;;;;;3.19;100.00;97467.41;15274056;19;20406;-76
2023/03/11 10:33:49;;;;;;;3.28;1.25;;;;;;;3.16;100.00;97483.63;15273279;19;20011;-75
2023/03/11 10:39:19;;;;;;;4.50;1.10;;;;;;;3.03;100.00;97503.34;15276379;19;20130;-76
2023/03/11 10:44:44;;;;;;;7.68;1.45;;;;;;;2.68;100.00;97488.69;15263121;19;20059;-74
2023/03/11 10:50:11;;;;;;;3.10;1.25;;;;;;;2.65;100.00;97504.06;15268452;19;20018;-73
2023/03/11 10:55:47;;;;;;;3.67;1.30;;;;;;;2.63;100.00;97498.91;15268253;19;20101;-74
2023/03/11 11:01:24;;;;;;;4.25;1.40;;;;;;;2.89;100.00;97511.72;15263707;19;20082;-74
2023/03/11 11:06:49;;;;;;;3.75;1.30;;;;;;;2.63;100.00;97522.84;15267744;19;20017;-75
2023/03/11 11:12:22;;;;;;;3.90;1.33;;;;;;;2.93;100.00;97526.44;15267632;19;20033;-78
2023/03/11 11:17:49;;;;;;;2.38;1.10;;;;;;;2.83;100.00;97533.53;15264237;19;20014;-74
2023/03/11 11:23:14;;;;;;;2.92;1.10;;;;;;;2.65;100.00;97531.50;15276619;19;20085;-78
2023/03/11 11:28:41;;;;;;;3.33;1.20;;;;;;;2.44;100.00;97545.69;15286005;19;20077;-76
2023/03/11 11:34:06;;;;;;;3.65;1.42;;;;;;;2.58;100.00;97530.34;15280952;19;20018;-74
2023/03/11 11:39:38;;;;;;;4.43;1.67;;;;;;;2.81;100.00;97535.50;15284084;19;20036;-74
2023/03/11 11:45:12;;;;;;;3.72;1.60;;;;;;;2.73;100.00;97534.34;15290659;19;20011;-76
2023/03/11 11:50:40;;;;;;;3.17;1.20;;;;;;;2.77;100.00;97537.59;15276158;19;20018;-75
2023/03/11 11:56:05;;;;;;;2.35;1.17;;;;;;;2.96;100.00;97538.63;15283621;19;20015;-75
2023/03/11 12:01:48;;;;;;;3.38;1.20;;;;;;;2.96;100.00;97538.63;15280438;19;20042;-73
2023/03/11 12:07:27;;;;;;;2.58;1.52;;;;;;;3.08;100.00;97537.53;15282478;19;20014;-74
2023/03/11 12:13:13;;;;;;;2.85;1.40;;;;;;;3.28;100.00;97551.75;15291420;19;20074;-75
2023/03/11 12:18:45;;;;;;;2.08;1.23;;;;;;;3.50;100.00;97552.47;15339714;19;20006;-76
2023/03/11 12:24:24;;;;;;;2.25;1.40;;;;;;;3.41;100.00;97538.16;15274050;19;20021;-74
2023/03/11 12:29:53;;;;;;;1.48;1.10;;;;;;;3.52;100.00;97550.53;15277562;19;20053;-75
2023/03/11 12:35:31;;;;;;;2.28;1.30;;;;;;;3.54;100.00;97559.22;15270883;19;20045;-76
2023/03/11 12:41:06;;;;;;;1.45;1.20;;;;;;;3.33;100.00;97562.84;15276759;19;20359;-77
2023/03/11 12:47:05;;;;;;;2.28;1.30;;;;;;;3.52;100.00;97558.50;15280348;19;20025;-76
2023/03/11 12:52:54;;;;;;;2.25;1.27;;;;;;;3.80;100.00;97554.19;15271457;19;20054;-79
2023/03/11 12:58:55;;;;;;;1.90;1.30;;;;;;;3.79;100.00;97547.16;15279052;19;20025;-78
2023/03/11 13:04:38;;;;;;;2.80;1.10;;;;;;;4.27;100.00;97563.28;15272744;19;20078;-74
2023/03/11 13:10:22;;;;;;;2.50;1.20;;;;;;;4.21;100.00;97561.19;15275958;19;20014;-77
2023/03/11 13:15:47;;;;;;;2.92;1.30;;;;;;;4.26;100.00;97567.78;15278626;19;21355;-76
2023/03/11 13:21:13;;;;;;;2.42;1.13;;;;;;;4.39;100.00;97562.13;15277884;19;20086;-76
2023/03/11 13:26:46;;;;;;;1.90;1.30;;;;;;;4.05;100.00;97575.09;15271970;19;20368;-79
2023/03/11 13:32:44;;;;;;;4.10;1.38;;;;;;;4.95;100.00;97575.59;15270973;19;20010;-78
2023/03/11 13:38:40;;;;;;;2.03;1.30;;;;;;;4.81;100.00;97568.06;15274140;19;20031;-77
2023/03/11 13:44:18;;;;;;;2.35;1.27;;;;;;;4.38;100.00;97567.63;15272250;19;20429;-77
2023/03/11 13:49:47;;;;;;;1.65;1.17;;;;;;;4.39;100.00;97579.97;15274520;19;20014;-77
2023/03/11 13:55:15;;;;;;;2.15;1.13;;;;;;;4.43;100.00;97594.69;15275432;19;20006;-78
2023/03/11 14:00:49;;;;;;;3.38;1.10;;;;;;;4.49;100.00;97586.13;15304528;19;20010;-77
2023/03/11 14:06:17;;;;;;;1.15;1.05;;;;;;;4.42;100.00;97604.53;15269860;19;20877;-74
2023/03/11 14:11:46;;;;;;;1.60;1.25;;;;;;;5.08;100.00;97600.13;15264490;19;20074;-75
2023/03/11 14:17:21;;;;;;;1.80;1.15;;;;;;;4.56;100.00;97597.88;15262463;19;20064;-75
2023/03/11 14:22:48;;;;;;;1.55;1.08;;;;;;;4.75;100.00;97596.19;15267669;19;20014;-76
2023/03/11 14:28:13;;;;;;;0.98;0.85;;;;;;;5.14;100.00;97617.38;15257862;19;20384;-77
2023/03/11 14:33:41;;;;;;;2.03;1.02;;;;;;;5.39;100.00;97625.72;15265320;19;20495;-75
2023/03/11 14:39:05;;;;;;;1.30;0.93;;;;;;;5.43;100.00;97627.09;15268235;19;20023;-74
2023/03/11 14:44:33;;;;;;;2.60;0.85;;;;;;;5.35;100.00;97635.03;15275443;19;20011;-73
2023/03/11 14:50:01;;;;;;;0.90;0.73;;;;;;;5.14;100.00;97641.41;15280690;19;20103;-77
2023/03/11 14:55:32;;;;;;;2.38;0.70;;;;;;;5.39;100.00;97649.75;15326084;19;20022;-74
2023/03/11 15:01:07;;;;;;;2.40;0.90;;;;;;;5.34;98.08;97649.38;15272610;19;20050;-74
2023/03/11 15:06:39;;;;;;;2.03;0.70;;;;;;;5.56;100.00;97650.78;15279458;19;20014;-75
2023/03/11 15:12:06;;;;;;;1.83;0.80;;;;;;;5.44;98.37;97644.81;15275641;19;20021;-76
2023/03/11 15:17:31;;;;;;;1.95;0.80;;;;;;;5.20;95.91;97648.84;15284022;19;20036;-77
2023/03/11 15:23:06;;;;;;;3.58;0.77;;;;;;;5.47;93.06;97649.84;15282659;19;20010;-77
2023/03/11 15:28:33;;;;;;;1.58;0.70;;;;;;;5.36;93.68;97658.91;15276737;19;20455;-74
2023/03/11 15:33:58;;;;;;;1.88;0.68;;;;;;;5.24;100.00;97666.25;15272635;19;20007;-74
2023/03/11 15:39:30;;;;;;;2.03;0.60;;;;;;;5.10;87.13;97664.06;15276075;19;20039;-74
2023/03/11 15:45:19;;;;;;;1.17;0.55;;;;;;;5.30;83.98;97686.19;15269307;19;20014;-77
2023/03/11 15:50:56;;;;;;;1.67;0.47;;;;;;;5.48;82.62;97682.75;15273804;19;20017;-74
2023/03/11 15:56:32;;;;;;;1.95;0.80;;;;;;;5.24;85.25;97695.63;15267427;19;20014;-72
2023/03/11 16:02:04;;;;;;;1.08;0.60;;;;;;;5.03;97.54;97694.97;15261320;19;20011;-72
2023/03/11 16:07:29;;;;;;;2.78;0.68;;;;;;;5.42;95.34;97708.22;15255848;19;20033;-73
2023/03/11 16:12:59;;;;;;;2.80;0.80;;;;;;;5.44;100.00;97703.59;15265420;19;20011;-72
2023/03/11 16:18:24;;;;;;;2.55;0.90;;;;;;;5.46;94.38;97706.97;15264515;19;20017;-74
2023/03/11 16:23:48;;;;;;;1.02;0.50;;;;;;;5.21;99.65;97719.97;15265440;19;20022;-76
2023/03/11 16:29:27;;;;;;;1.30;0.70;;;;;;;5.28;96.59;97724.72;15284610;19;20069;-76
2023/03/11 16:34:51;;;;;;;2.70;1.00;;;;;;;5.09;100.00;97732.63;15285943;19;20006;-74
2023/03/11 16:40:18;;;;;;;2.35;1.00;;;;;;;4.99;100.00;97736.31;15283217;19;20520;-75
2023/03/11 16:45:46;;;;;;;2.75;1.08;;;;;;;5.07;100.00;97733.75;15286737;19;20666;-75
2023/03/11 16:51:11;;;;;;;3.55;1.00;;;;;;;5.12;100.00;97736.00;15284820;19;20041;-76
2023/03/11 16:56:38;;;;;;;1.60;0.95;;;;;;;4.81;100.00;97734.34;15291862;19;20097;-76
2023/03/11 17:02:06;;;;;;;2.25;1.00;;;;;;;4.84;100.00;97738.56;15285194;19;20014;-72
2023/03/11 17:07:30;;;;;;;1.27;0.82;;;;;;;4.69;100.00;97752.34;15292366;19;20014;-72
2023/03/11 17:12:57;;;;;;;2.33;0.90;;;;;;;4.43;100.00;97752.03;15286231;19;20010;-74
2023/03/11 17:18:24;;;;;;;2.42;1.00;;;;;;;4.60;100.00;97758.50;15287019;19;20037;-77
2023/03/11 17:23:50;;;;;;;2.08;0.90;;;;;;;4.64;100.00;97757.25;15290953;19;20010;-73
2023/03/11 17:29:14;;;;;;;2.30;0.90;;;;;;;4.61;100.00;97761.06;15291623;19;20031;-75
2023/03/11 17:34:41;;;;;;;3.80;1.02;;;;;;;4.48;100.00;97771.16;15326951;19;20011;-71
2023/03/11 17:40:06;;;;;;;2.45;0.90;;;;;;;4.29;100.00;97775.44;15305624;19;20023;-48
2023/03/11 17:45:31;;;;;;;2.10;1.00;;;;;;;4.51;100.00;97784.22;15274899;19;20075;-49
2023/03/11 17:50:58;;;;;;;4.40;1.15;;;;;;;4.41;100.00;97778.84;15279345;19;20541;-53
2023/03/11 17:56:24;;;;;;;1.75;0.90;;;;;;;4.13;100.00;97788.47;15281271;19;20020;-52
2023/03/11 18:01:48;;;;;;;2.67;1.00;;;;;;;4.16;100.00;97793.56;15279003;19;20448;-53
2023/03/11 18:07:17;;;;;;;2.92;1.00;;;;;;;4.46;100.00;97800.63;15280119;19;20023;-56
2023/03/11 18:12:41;;;;;;;2.30;1.00;;;;;;;4.68;100.00;97805.84;15273910;19;20066;-51
2023/03/11 18:18:08;;;;;;;2.17;0.90;;;;;;;4.78;100.00;97804.88;15276027;19;20359;-54
2023/03/11 18:23:37;;;;;;;2.97;1.10;;;;;;;4.32;100.00;97811.69;15278352;19;20018;-50
2023/03/11 18:29:04;;;;;;;4.30;1.38;;;;;;;4.25;100.00;97816.72;15276712;19;20081;-51
2023/03/11 18:34:28;;;;;;;2.38;1.35;;;;;;;4.19;100.00;97817.25;15277600;19;20022;-55
2023/03/11 18:39:56;;;;;;;2.20;1.30;;;;;;;4.03;100.00;97819.59;15278881;19;20087;-50
2023/03/11 18:45:27;;;;;;;2.50;1.30;;;;;;;4.14;100.00;97827.50;15281590;19;20393;-55
2023/03/11 18:50:53;;;;;;;7.15;1.50;;;;;;;3.97;100.00;97820.97;15275234;19;20017;-52
2023/03/11 18:56:22;;;;;;;4.53;1.85;;;;;;;3.88;100.00;97819.97;15280967;19;20007;-50
2023/03/11 19:01:47;;;;;;;2.90;1.40;;;;;;;3.72;100.00;97832.91;15279321;19;20018;-51
2023/03/11 19:07:11;;;;;;;4.30;1.55;;;;;;;3.69;100.00;97829.56;15279584;19;20475;-54
2023/03/11 19:12:38;;;;;;;3.13;1.75;;;;;;;3.65;100.00;97838.78;15274413;19;20485;-51
2023/03/11 19:18:03;;;;;;;3.58;1.77;;;;;;;3.63;100.00;97835.41;15270718;19;20014;-55
2023/03/11 19:23:28;;;;;;;3.60;1.90;;;;;;;3.53;100.00;97845.16;15271506;19;20476;-52
2023/03/11 19:28:55;;;;;;;3.80;2.05;;;;;;;3.34;100.00;97844.06;15273063;19;20021;-51
2023/03/11 19:34:21;;;;;;;3.17;1.92;;;;;;;3.29;100.00;97858.75;15272931;19;20029;-50
2023/03/11 19:39:46;;;;;;;3.75;1.90;;;;;;;3.28;100.00;97857.88;15274188;19;20015;-55
2023/03/11 19:45:20;;;;;;;4.05;1.73;;;;;;;3.37;100.00;97853.59;15281749;19;20546;-51
2023/03/11 19:50:45;;;;;;;5.10;2.00;;;;;;;3.27;100.00;97872.16;15282705;19;20019;-51
2023/03/11 19:56:10;;;;;;;4.35;1.92;;;;;;;3.20;100.00;97874.50;15288644;19;20078;-55
2023/03/11 20:01:37;;;;;;;3.38;1.48;;;;;;;2.96;100.00;97872.06;15268360;19;20027;-52
2023/03/11 20:07:02;;;;;;;3.20;1.60;;;;;;;3.01;100.00;97872.50;15291650;19;20018;-52
2023/03/11 20:12:27;;;;;;;4.68;1.70;;;;;;;2.86;100.00;97879.13;15286705;19;20025;-51
2023/03/11 20:17:54;;;;;;;3.47;1.80;;;;;;;2.82;100.00;97885.66;15289300;19;20023;-54
2023/03/11 20:23:19;;;;;;;3.92;2.00;;;;;;;2.86;100.00;97884.44;15280060;19;20018;-53
2023/03/11 20:28:43;;;;;;;5.20;1.77;;;;;;;2.89;100.00;97890.34;15280636;19;20157;-54
2023/03/11 20:34:11;;;;;;;3.03;1.88;;;;;;;2.93;100.00;97880.28;15286092;19;20019;-52
2023/03/11 20:39:35;;;;;;;2.78;1.60;;;;;;;2.95;100.00;97890.81;15287162;19;20022;-54
2023/03/11 20:45:00;;;;;;;4.68;1.88;;;;;;;2.91;100.00;97899.06;15281887;19;20078;-55
2023/03/11 20:50:28;;;;;;;3.95;1.80;;;;;;;2.88;100.00;97882.50;15284317;19;20010;-55
2023/03/11 20:55:53;;;;;;;4.53;1.70;;;;;;;2.78;100.00;97872.59;15276289;19;20018;-53
2023/03/11 21:01:22;;;;;;;3.60;1.90;;;;;;;2.75;100.00;97878.19;15282341;19;20014;-54
2023/03/11 21:06:51;;;;;;;3.47;1.80;;;;;;;2.76;100.00;97879.03;15284250;19;20027;-50
2023/03/11 21:12:17;;;;;;;2.95;1.70;;;;;;;2.79;100.00;97870.78;15282531;19;20022;-50
2023/03/11 21:17:42;;;;;;;3.03;1.85;;;;;;;2.73;100.00;97868.63;15285155;19;20366;-52
2023/03/11 21:23:09;;;;;;;4.53;1.90;;;;;;;2.74;100.00;97867.66;15279503;19;20015;-51
2023/03/11 21:28:45;;;;;;;5.55;3.55;;;;;;;2.58;100.00;97902.63;15259658;19;20022;-50
2023/03/11 21:34:12;;;;;;;7.25;4.32;;;;;;;2.66;100.00;97902.84;15281754;19;20078;-51
2023/03/11 21:39:39;;;;;;;5.40;2.03;;;;;;;2.78;100.00;97893.88;15280467;19;20022;-51
2023/03/11 21:45:04;;;;;;;5.03;2.10;;;;;;;2.98;100.00;97890.56;15280608;19;20054;-51
2023/03/11 21:50:28;;;;;;;2.88;1.77;;;;;;;2.96;100.00;97884.50;15280948;19;20037;-51
2023/03/11 21:55:56;;;;;;;3.28;1.73;;;;;;;2.88;100.00;97883.34;15279762;19;20021;-51
2023/03/11 22:01:20;;;;;;;3.60;1.80;;;;;;;3.01;100.00;97882.31;15276216;19;20023;-50
2023/03/11 22:06:45;;;;;;;3.80;1.98;;;;;;;2.69;100.00;97893.81;15276329;19;20085;-50
2023/03/11 22:12:15;;;;;;;3.47;2.00;;;;;;;2.70;100.00;97908.78;15280069;19;20014;-52
2023/03/11 22:17:40;;;;;;;4.88;1.67;;;;;;;2.69;100.00;97909.75;15279083;19;20010;-52
2023/03/11 22:23:04;;;;;;;6.10;1.83;;;;;;;2.73;100.00;97913.84;15281407;19;20033;-55
2023/03/11 22:28:38;;;;;;;3.30;1.73;;;;;;;2.56;100.00;97909.88;15275662;19;20485;-54
2023/03/11 22:34:03;;;;;;;3.20;1.80;;;;;;;2.45;100.00;97908.09;15275733;19;20484;-54
2023/03/11 22:39:28;;;;;;;3.22;1.85;;;;;;;2.42;100.00;97918.97;15278638;19;20093;-52
2023/03/11 22:44:56;;;;;;;2.88;1.90;;;;;;;2.34;100.00;97911.59;15278965;19;20517;-50
2023/03/11 22:50:20;;;;;;;4.20;2.30;;;;;;;2.42;100.00;97903.84;15280212;19;20028;-53
2023/03/11 22:55:46;;;;;;;4.55;2.20;;;;;;;2.47;100.00;97911.47;15277060;19;20090;-52
2023/03/11 23:01:15;;;;;;;3.75;2.00;;;;;;;2.38;100.00;97907.75;15278629;19;20038;-54
2023/03/11 23:06:40;;;;;;;5.60;2.33;;;;;;;2.36;100.00;97917.66;15269423;19;20028;-54
2023/03/11 23:12:05;;;;;;;5.85;2.22;;;;;;;2.31;100.00;97914.50;15278014;19;20010;-54
2023/03/11 23:17:33;;;;;;;2.38;1.90;;;;;;;2.21;100.00;97921.50;15279197;19;20018;-51
2023/03/11 23:22:57;;;;;;;4.68;2.22;;;;;;;2.37;100.00;97921.13;15293372;19;20025;-51
2023/03/11 23:28:28;;;;;;;8.50;2.55;;;;;;;2.43;100.00;97924.16;15288813;19;20386;-50
2023/03/11 23:33:56;;;;;;;7.10;2.17;;;;;;;2.33;100.00;97931.19;15292594;19;20022;-50
2023/03/11 23:39:20;;;;;;;6.18;2.35;;;;;;;2.44;100.00;97928.50;15285631;19;20143;-52
2023/03/11 23:44:45;;;;;;;4.40;2.17;;;;;;;2.53;100.00;97936.75;15291532;19;20245;-50
2023/03/11 23:50:14;;;;;;;2.55;1.90;;;;;;;2.36;100.00;97930.09;15291410;19;20129;-53
2023/03/11 23:55:39;;;;;;;3.47;1.75;;;;;;;2.29;100.00;97940.38;15289959;19;20026;-50
